Flight Track Log - Related Links

Times and Time Zones

All times are in EST time to prevent confusion due to time zone crossing. See the EJA831 flight status page for this flight to view local times or setup timezone preferences in your user account.

Time Position Orientation Groundspeed Altitude Reporting Facility
EST Latitude Longitude Course Direction KTS MPH feet Rate Location/Type
Tue 07:32:07 PM 35.0333 -89.9667 180° South 176 203 1,100  Level KMEM
Tue 07:32:37 PM 35.0000 -89.9667 180° South 200 230 3,600 3,933 Climbing KMEM
Tue 07:33:37 PM 34.9500 -89.9333 151° Southeast 293 337 7,000 3,713 Climbing KMEM
Tue 07:35:17 PM 34.9919 -89.7850 71° East 318 366 13,500 3,852 Climbing Memphis Center
Tue 07:36:19 PM 35.0314 -89.6825 65° Northeast 325 374 17,400 3,073 Climbing Memphis Center
Tue 07:37:20 PM 35.0742 -89.5722 65° Northeast 351 404 19,800 2,146 Climbing Memphis Center
Tue 07:38:22 PM 35.1222 -89.4464 65° Northeast 396 456 21,800 2,419 Climbing Memphis Center
Tue 07:39:24 PM 35.1800 -89.2961 65° Northeast 412 474 24,800 2,613 Climbing Memphis Center
Tue 07:40:26 PM 35.2558 -89.1906 49° Northeast 413 475 27,200 2,244 Climbing Memphis Center
Tue 07:41:27 PM 35.3306 -89.0808 50° Northeast 413 475 29,400 2,049 Climbing Memphis Center
Tue 07:42:29 PM 35.4086 -88.9722 49° Northeast 418 481 31,400 1,790 Climbing Memphis Center
Tue 07:43:31 PM 35.4842 -88.8606 50° Northeast 420 483 33,100 1,645 Climbing Memphis Center
Tue 07:44:33 PM 35.5619 -88.7358 53° Northeast 423 487 34,800 927 Climbing Memphis Center
Tue 07:45:34 PM 35.6375 -88.6189 51° Northeast 432 497 35,000 98 Climbing Memphis Center
Tue 07:46:36 PM 35.7147 -88.4986 52° Northeast 445 512 35,000  Level Memphis Center
Tue 07:47:38 PM 35.7914 -88.3842 50° Northeast 439 505 35,000  Level Memphis Center
Tue 07:48:39 PM 35.8661 -88.2708 51° Northeast 431 496 35,000  Level Memphis Center
Tue 07:49:41 PM 35.9406 -88.1553 51° Northeast 431 496 35,000  Level Memphis Center
Tue 07:50:43 PM 36.0306 -88.0217 50° Northeast 432 497 35,000  Level Memphis Center
Tue 07:51:44 PM 36.1114 -87.9078 49° Northeast 433 498 35,000  Level Memphis Center
Tue 07:52:46 PM 36.2022 -87.8144 40° Northeast 422 486 35,000  Level Memphis Center
Tue 07:53:48 PM 36.2936 -87.7186 40° Northeast 422 486 35,000  Level Memphis Center
Tue 07:54:50 PM 36.3844 -87.6228 40° Northeast 423 487 35,000  Level Memphis Center
Tue 07:55:51 PM 36.4764 -87.5264 40° Northeast 426 490 35,000  Level Memphis Center
Tue 07:56:53 PM 36.5681 -87.4289 40° Northeast 427 491 35,000  Level Memphis Center
Tue 07:57:55 PM 36.6597 -87.3294 41° Northeast 429 494 35,000  Level Memphis Center
Tue 07:58:57 PM 36.7522 -87.2311 40° Northeast 430 495 35,000  Level Memphis Center
Tue 07:59:58 PM 36.8456 -87.1319 40° Northeast 433 498 35,000  Level Memphis Center
Tue 08:01:00 PM 36.9383 -87.0317 41° Northeast 434 499 35,000  Level Memphis Center
Tue 08:02:02 PM 37.0469 -86.9142 41° Northeast 436 502 35,000  Level Memphis Center
Tue 08:03:03 PM 37.1397 -86.8133 41° Northeast 436 502 35,000  Level Memphis Center
Tue 08:04:05 PM 37.2317 -86.7142 41° Northeast 433 498 35,000  Level Memphis Center
Tue 08:05:07 PM 37.3256 -86.6117 41° Northeast 438 504 35,000  Level Memphis Center
Tue 08:06:08 PM 37.4186 -86.5111 41° Northeast 437 503 35,000  Level Memphis Center
Tue 08:07:10 PM 37.5108 -86.4089 41° Northeast 437 503 35,000  Level Memphis Center
Tue 08:08:12 PM 37.6047 -86.3047 41° Northeast 443 510 35,000  Level Memphis Center
Tue 08:09:13 PM 37.6978 -86.2017 41° Northeast 442 509 35,000  Level Memphis Center
Tue 08:10:30 PM 37.8114 -86.0761 41° Northeast 437 503 35,000  Level Indianapolis Center
Tue 08:11:31 PM 37.9042 -85.9711 42° Northeast 443 510 35,000  Level Indianapolis Center
Tue 08:12:32 PM 37.9950 -85.8697 41° Northeast 438 504 35,000  Level Indianapolis Center
Tue 08:13:34 PM 38.1053 -85.7464 41° Northeast 440 506 35,000 -484 Level Indianapolis Center
Tue 08:14:36 PM 38.1972 -85.6431 41° Northeast 440 506 34,000 -976 Descending Indianapolis Center
Tue 08:15:37 PM 38.2861 -85.5422 42° Northeast 431 496 33,000 -976 Descending Indianapolis Center
Tue 08:16:39 PM 38.3758 -85.4408 42° Northeast 430 495 32,000 -976 Descending Indianapolis Center
Tue 08:17:40 PM 38.4686 -85.3350 42° Northeast 441 507 31,000 -488 Descending Indianapolis Center
Tue 08:18:42 PM 38.5603 -85.2292 42° Northeast 444 511 31,000  Level Indianapolis Center
Tue 08:19:44 PM 38.6636 -85.1100 42° Northeast 448 516 31,000 -195 Level Indianapolis Center
Tue 08:20:45 PM 38.7567 -85.0031 42° Northeast 451 519 30,600 -1,317 Descending Indianapolis Center
Tue 08:21:47 PM 38.8492 -84.8967 42° Northeast 450 518 28,300 -2,177 Descending Indianapolis Center
Tue 08:22:49 PM 38.9344 -84.7981 42° Northeast 443 510 26,100 -2,098 Descending Indianapolis Center
Tue 08:23:50 PM 39.0344 -84.6689 45° Northeast 429 494 24,000 -1,171 Descending Indianapolis Center
Tue 08:24:52 PM 39.1033 -84.5447 54° Northeast 427 491 23,700 -629 Descending Indianapolis Center
Tue 08:25:54 PM 39.1725 -84.4208 54° Northeast 428 493 22,700 -976 Descending Indianapolis Center
Tue 08:26:55 PM 39.2403 -84.2975 55° Northeast 424 488 21,700 -1,220 Descending Indianapolis Center
Tue 08:27:57 PM 39.3031 -84.1761 56° Northeast 412 474 20,200 -1,512 Descending Indianapolis Center
Tue 08:28:58 PM 39.3528 -84.0453 64° Northeast 407 468 18,600 -1,610 Descending Indianapolis Center
Tue 08:30:00 PM 39.4019 -83.9181 63° Northeast 400 460 16,900 -1,742 Descending Indianapolis Center
Tue 08:31:02 PM 39.4589 -83.7672 64° Northeast 393 452 15,000 -1,771 Descending Indianapolis Center
Tue 08:31:45 PM 39.4939 -83.6756 64° Northeast 385 443 13,800 -1,574 Descending Indianapolis Center
Tue 08:32:03 PM 39.5056 -83.6453 63° Northeast 383 441 13,400 -1,583 Descending Indianapolis Center
Tue 08:32:57 PM 39.5483 -83.5328 64° Northeast 365 420 11,900 -1,548 Descending Indianapolis Center
Tue 08:33:05 PM 39.5503 -83.5275 64° Northeast 372 428 11,800 -1,433 Descending Indianapolis Center
Tue 08:34:04 PM 39.6083 -83.4153 56° Northeast 352 405 10,300 -1,377 Descending Indianapolis Center
Tue 08:34:06 PM 39.6042 -83.4217 230° Southwest 360 414 10,400 -300 Climbing Indianapolis Center
Tue 08:35:04 PM 39.6644 -83.3158 53° Northeast 342 394 10,000 -387 Descending Indianapolis Center
Tue 08:35:08 PM 39.6592 -83.3233 228° Southwest 345 397 10,000 -122 Level Indianapolis Center
Tue 08:35:53 PM 39.7108 -83.2308 54° Northeast 343 395 9,900 -197 Descending Indianapolis Center
Tue 08:36:09 PM 39.7125 -83.2242 72° East 340 391 9,800 -1,923 Descending Indianapolis Center
Tue 08:37:11 PM 39.7694 -83.1228 54° Northeast 295 339 7,400 -2,065 Descending Indianapolis Center
Tue 08:37:42 PM 39.7972 -83.0761 52° Northeast 282 325 6,600 -1,180 Descending Indianapolis Center
Tue 08:38:12 PM 39.8072 -83.0339 73° East 287 330 6,200 -590 Descending Indianapolis Center
Tue 08:38:43 PM 39.8233 -82.9794 69° East 284 327 6,000 -774 Descending Indianapolis Center
Tue 08:39:14 PM 39.8386 -82.9417 62° Northeast 281 323 5,400 -1,672 Descending Indianapolis Center
Tue 08:39:44 PM 39.8608 -82.8928 59° Northeast 278 320 4,300 -1,377 Descending Indianapolis Center
Tue 08:40:15 PM 39.8758 -82.8542 63° Northeast 280 322 4,000 -295 Descending Indianapolis Center
Tue 08:40:45 PM 39.8936 -82.8136 60° Northeast 242 278 4,000  Level Indianapolis Center
Tue 08:41:17 PM 39.9083 -82.7794 61° Northeast 258 297 4,000 -393 Level Indianapolis Center
Tue 08:41:46 PM 39.9383 -82.7606 26° Northeast 205 236 3,600 -885 Descending Indianapolis Center
Tue 08:42:18 PM 39.9603 -82.7581 North 230 265 3,100 -1,100 Descending Indianapolis Center
Tue 08:42:46 PM 39.9894 -82.7769 334° Northwest 190 219 2,500 -1,065 Descending Indianapolis Center
Tue 08:43:20 PM 39.9981 -82.8092 289° West 197 227 2,000 -885 Descending Indianapolis Center
Tue 08:43:47 PM 39.9986 -82.8356 272° West 158 182 1,600 -677 Descending Indianapolis Center
Tue 08:44:22 PM 40.0008 -82.8514 280° West 173 199 1,300 -514 Descending Indianapolis Center
Tue 08:46:00 PM 39.9833 -82.8833 270° West  Level FlightAware Approximate
Tue 08:53:00 PM 39.9969 -82.8922 270° West  Level Estimated

Login

Don't have an account? Register now (free) for customized features, flight alerts, and more!